sensor_id;sensor_type;location;lat;lon;timestamp;pressure;altitude;pressure_sealevel;temperature;humidity
47082;BME280;33066;49.296;14.470;2023-06-19T00:01:24;96841.30;;;22.55;38.45
47082;BME280;33066;49.296;14.470;2023-06-19T00:03:50;96841.70;;;22.30;38.48
47082;BME280;33066;49.296;14.470;2023-06-19T00:06:15;96840.13;;;22.23;38.60
47082;BME280;33066;49.296;14.470;2023-06-19T00:08:40;96839.36;;;22.36;38.66
47082;BME280;33066;49.296;14.470;2023-06-19T00:11:06;96837.09;;;22.54;38.66
47082;BME280;33066;49.296;14.470;2023-06-19T00:13:31;96835.97;;;22.46;38.66
47082;BME280;33066;49.296;14.470;2023-06-19T00:15:56;96832.17;;;22.43;38.62
47082;BME280;33066;49.296;14.470;2023-06-19T00:18:22;96830.39;;;22.18;38.59
47082;BME280;33066;49.296;14.470;2023-06-19T00:20:47;96830.02;;;22.18;38.63
47082;BME280;33066;49.296;14.470;2023-06-19T00:23:13;96828.23;;;22.17;38.53
47082;BME280;33066;49.296;14.470;2023-06-19T00:25:38;96824.29;;;22.11;38.45
47082;BME280;33066;49.296;14.470;2023-06-19T00:28:04;96824.10;;;22.32;38.39
47082;BME280;33066;49.296;14.470;2023-06-19T00:30:29;96821.11;;;22.28;38.42
47082;BME280;33066;49.296;14.470;2023-06-19T00:32:54;96822.50;;;22.23;38.44
47082;BME280;33066;49.296;14.470;2023-06-19T00:35:20;96821.61;;;22.18;38.56
47082;BME280;33066;49.296;14.470;2023-06-19T00:37:46;96820.32;;;21.92;38.54
47082;BME280;33066;49.296;14.470;2023-06-19T00:40:16;96815.76;;;21.97;38.54
47082;BME280;33066;49.296;14.470;2023-06-19T00:42:37;96808.20;;;22.08;38.31
47082;BME280;33066;49.296;14.470;2023-06-19T00:45:03;96807.10;;;22.08;38.20
47082;BME280;33066;49.296;14.470;2023-06-19T00:47:27;96810.36;;;22.31;37.59
47082;BME280;33066;49.296;14.470;2023-06-19T00:49:53;96808.79;;;22.29;37.41
47082;BME280;33066;49.296;14.470;2023-06-19T00:52:18;96808.37;;;22.02;37.32
47082;BME280;33066;49.296;14.470;2023-06-19T00:54:44;96811.55;;;22.20;37.15
47082;BME280;33066;49.296;14.470;2023-06-19T00:57:09;96813.81;;;22.13;37.03
47082;BME280;33066;49.296;14.470;2023-06-19T00:59:34;96810.43;;;22.16;36.88
47082;BME280;33066;49.296;14.470;2023-06-19T01:02:00;96806.24;;;21.96;36.85
47082;BME280;33066;49.296;14.470;2023-06-19T01:04:25;96801.45;;;22.03;36.91
47082;BME280;33066;49.296;14.470;2023-06-19T01:06:54;96802.32;;;22.24;36.83
47082;BME280;33066;49.296;14.470;2023-06-19T01:09:17;96802.92;;;22.27;36.76
47082;BME280;33066;49.296;14.470;2023-06-19T01:11:46;96801.57;;;21.97;36.93
47082;BME280;33066;49.296;14.470;2023-06-19T01:14:12;96801.01;;;21.96;37.09
47082;BME280;33066;49.296;14.470;2023-06-19T01:16:34;96802.22;;;21.92;37.28
47082;BME280;33066;49.296;14.470;2023-06-19T01:19:00;96804.01;;;22.07;37.36
47082;BME280;33066;49.296;14.470;2023-06-19T01:21:24;96800.88;;;21.94;37.70
47082;BME280;33066;49.296;14.470;2023-06-19T01:23:50;96803.19;;;21.58;37.84
47082;BME280;33066;49.296;14.470;2023-06-19T01:26:16;96807.09;;;21.68;38.04
47082;BME280;33066;49.296;14.470;2023-06-19T01:28:42;96808.58;;;21.61;38.25
47082;BME280;33066;49.296;14.470;2023-06-19T01:31:12;96808.06;;;21.28;38.46
47082;BME280;33066;49.296;14.470;2023-06-19T01:33:32;96809.14;;;21.45;38.58
47082;BME280;33066;49.296;14.470;2023-06-19T01:35:58;96803.45;;;21.39;38.49
47082;BME280;33066;49.296;14.470;2023-06-19T01:38:25;96798.01;;;21.28;38.48
47082;BME280;33066;49.296;14.470;2023-06-19T01:40:49;96794.29;;;21.18;38.58
47082;BME280;33066;49.296;14.470;2023-06-19T01:43:14;96795.19;;;21.12;38.63
47082;BME280;33066;49.296;14.470;2023-06-19T01:45:39;96797.52;;;21.60;38.68
47082;BME280;33066;49.296;14.470;2023-06-19T01:48:04;96798.11;;;21.25;38.73
47082;BME280;33066;49.296;14.470;2023-06-19T01:50:30;96797.04;;;21.21;38.71
47082;BME280;33066;49.296;14.470;2023-06-19T01:52:55;96794.47;;;21.16;38.73
47082;BME280;33066;49.296;14.470;2023-06-19T01:55:21;96792.49;;;21.17;38.68
47082;BME280;33066;49.296;14.470;2023-06-19T01:57:46;96792.89;;;21.19;38.72
47082;BME280;33066;49.296;14.470;2023-06-19T02:00:13;96794.73;;;19.97;38.38
47082;BME280;33066;49.296;14.470;2023-06-19T02:02:36;96797.30;;;22.02;37.51
47082;BME280;33066;49.296;14.470;2023-06-19T02:05:02;96796.77;;;21.70;37.79
47082;BME280;33066;49.296;14.470;2023-06-19T02:07:27;96796.41;;;21.44;38.02
47082;BME280;33066;49.296;14.470;2023-06-19T02:09:52;96798.23;;;21.48;38.20
47082;BME280;33066;49.296;14.470;2023-06-19T02:12:18;96799.59;;;21.34;38.46
47082;BME280;33066;49.296;14.470;2023-06-19T02:14:43;96800.31;;;21.24;38.23
47082;BME280;33066;49.296;14.470;2023-06-19T02:17:09;96796.31;;;21.43;37.78
47082;BME280;33066;49.296;14.470;2023-06-19T02:19:34;96790.49;;;21.16;37.65
47082;BME280;33066;49.296;14.470;2023-06-19T02:22:00;96786.37;;;21.08;38.06
47082;BME280;33066;49.296;14.470;2023-06-19T02:24:25;96783.97;;;20.97;38.32
47082;BME280;33066;49.296;14.470;2023-06-19T02:26:51;96782.56;;;20.92;38.55
47082;BME280;33066;49.296;14.470;2023-06-19T02:29:16;96786.09;;;20.92;38.62
47082;BME280;33066;49.296;14.470;2023-06-19T02:31:41;96790.07;;;21.16;38.58
47082;BME280;33066;49.296;14.470;2023-06-19T02:34:07;96788.78;;;21.11;38.46
47082;BME280;33066;49.296;14.470;2023-06-19T02:36:32;96786.89;;;21.03;38.61
47082;BME280;33066;49.296;14.470;2023-06-19T02:38:57;96787.90;;;20.96;38.80
47082;BME280;33066;49.296;14.470;2023-06-19T02:41:22;96792.51;;;20.97;38.80
47082;BME280;33066;49.296;14.470;2023-06-19T02:43:48;96794.83;;;21.01;38.12
47082;BME280;33066;49.296;14.470;2023-06-19T02:46:13;96794.01;;;20.53;37.72
47082;BME280;33066;49.296;14.470;2023-06-19T02:48:39;96791.35;;;21.08;37.62
47082;BME280;33066;49.296;14.470;2023-06-19T02:51:04;96790.38;;;21.15;37.70
47082;BME280;33066;49.296;14.470;2023-06-19T02:53:30;96790.55;;;20.89;37.55
47082;BME280;33066;49.296;14.470;2023-06-19T02:55:55;96793.17;;;20.87;37.59
47082;BME280;33066;49.296;14.470;2023-06-19T02:58:21;96797.60;;;21.13;37.38
47082;BME280;33066;49.296;14.470;2023-06-19T03:00:46;96797.09;;;21.21;37.52
47082;BME280;33066;49.296;14.470;2023-06-19T03:03:11;96799.07;;;20.62;37.83
47082;BME280;33066;49.296;14.470;2023-06-19T03:05:36;96801.72;;;20.73;37.91
47082;BME280;33066;49.296;14.470;2023-06-19T03:08:02;96802.94;;;20.89;38.16
47082;BME280;33066;49.296;14.470;2023-06-19T03:13:00;96805.81;;;20.99;37.96
47082;BME280;33066;49.296;14.470;2023-06-19T03:15:26;96801.97;;;20.85;38.02
47082;BME280;33066;49.296;14.470;2023-06-19T03:17:53;96800.39;;;20.75;38.12
47082;BME280;33066;49.296;14.470;2023-06-19T03:20:17;96798.59;;;20.66;38.22
47082;BME280;33066;49.296;14.470;2023-06-19T03:22:43;96799.83;;;20.88;38.22
47082;BME280;33066;49.296;14.470;2023-06-19T03:25:08;96804.02;;;20.62;38.23
47082;BME280;33066;49.296;14.470;2023-06-19T03:27:34;96805.49;;;20.83;38.34
47082;BME280;33066;49.296;14.470;2023-06-19T03:29:59;96805.20;;;20.77;38.43
47082;BME280;33066;49.296;14.470;2023-06-19T03:32:25;96802.86;;;20.57;38.42
47082;BME280;33066;49.296;14.470;2023-06-19T03:34:50;96799.68;;;20.57;38.44
47082;BME280;33066;49.296;14.470;2023-06-19T03:37:15;96803.71;;;20.83;38.53
47082;BME280;33066;49.296;14.470;2023-06-19T03:39:41;96804.10;;;20.86;38.41
47082;BME280;33066;49.296;14.470;2023-06-19T03:42:07;96802.72;;;20.63;38.45
47082;BME280;33066;49.296;14.470;2023-06-19T03:44:32;96805.51;;;20.64;38.46
47082;BME280;33066;49.296;14.470;2023-06-19T03:46:57;96807.56;;;20.88;38.43
47082;BME280;33066;49.296;14.470;2023-06-19T03:49:23;96809.98;;;20.90;38.22
47082;BME280;33066;49.296;14.470;2023-06-19T03:51:48;96810.96;;;20.68;38.16
47082;BME280;33066;49.296;14.470;2023-06-19T03:54:14;96810.64;;;20.97;38.27
47082;BME280;33066;49.296;14.470;2023-06-19T03:56:39;96810.52;;;20.74;38.30
47082;BME280;33066;49.296;14.470;2023-06-19T03:59:05;96811.80;;;21.00;38.19
47082;BME280;33066;49.296;14.470;2023-06-19T04:01:30;96812.38;;;21.09;37.90
47082;BME280;33066;49.296;14.470;2023-06-19T04:03:56;96808.63;;;20.89;37.75
47082;BME280;33066;49.296;14.470;2023-06-19T04:06:21;96807.28;;;21.11;37.66
47082;BME280;33066;49.296;14.470;2023-06-19T04:08:47;96804.90;;;21.06;37.54
47082;BME280;33066;49.296;14.470;2023-06-19T04:11:12;96806.44;;;21.04;37.78
47082;BME280;33066;49.296;14.470;2023-06-19T04:13:37;96805.89;;;20.86;38.16
47082;BME280;33066;49.296;14.470;2023-06-19T04:16:03;96807.38;;;21.06;38.42
47082;BME280;33066;49.296;14.470;2023-06-19T04:18:28;96809.80;;;21.11;38.12
47082;BME280;33066;49.296;14.470;2023-06-19T04:20:54;96811.00;;;21.20;37.59
47082;BME280;33066;49.296;14.470;2023-06-19T04:23:19;96816.60;;;21.29;37.18
47082;BME280;33066;49.296;14.470;2023-06-19T04:25:44;96817.87;;;21.12;37.25
47082;BME280;33066;49.296;14.470;2023-06-19T04:28:09;96814.40;;;21.13;37.13
47082;BME280;33066;49.296;14.470;2023-06-19T04:30:35;96817.78;;;21.30;37.35
47082;BME280;33066;49.296;14.470;2023-06-19T04:33:01;96819.96;;;21.43;37.25
47082;BME280;33066;49.296;14.470;2023-06-19T04:35:26;96822.61;;;21.34;37.19
47082;BME280;33066;49.296;14.470;2023-06-19T04:37:53;96822.45;;;21.25;37.00
47082;BME280;33066;49.296;14.470;2023-06-19T04:40:17;96821.55;;;21.64;37.01
47082;BME280;33066;49.296;14.470;2023-06-19T04:42:43;96820.86;;;21.75;37.42
47082;BME280;33066;49.296;14.470;2023-06-19T04:45:08;96822.21;;;22.08;37.74
47082;BME280;33066;49.296;14.470;2023-06-19T04:47:33;96821.56;;;21.92;37.88
47082;BME280;33066;49.296;14.470;2023-06-19T04:49:59;96824.29;;;22.00;37.96
47082;BME280;33066;49.296;14.470;2023-06-19T04:52:24;96822.99;;;21.84;37.80
47082;BME280;33066;49.296;14.470;2023-06-19T04:54:50;96823.47;;;21.96;37.83
47082;BME280;33066;49.296;14.470;2023-06-19T04:57:15;96827.26;;;22.06;37.75
47082;BME280;33066;49.296;14.470;2023-06-19T04:59:42;96825.67;;;22.18;37.53
47082;BME280;33066;49.296;14.470;2023-06-19T05:02:06;96827.84;;;22.51;36.99
47082;BME280;33066;49.296;14.470;2023-06-19T05:04:32;96831.36;;;22.21;36.57
47082;BME280;33066;49.296;14.470;2023-06-19T05:06:58;96834.27;;;22.53;36.15
47082;BME280;33066;49.296;14.470;2023-06-19T05:09:23;96833.73;;;22.27;36.18
47082;BME280;33066;49.296;14.470;2023-06-19T05:11:49;96832.09;;;22.77;36.34
47082;BME280;33066;49.296;14.470;2023-06-19T05:14:14;96830.89;;;22.27;36.43
47082;BME280;33066;49.296;14.470;2023-06-19T05:16:39;96832.57;;;22.27;36.71
47082;BME280;33066;49.296;14.470;2023-06-19T05:19:04;96831.33;;;22.29;36.90
47082;BME280;33066;49.296;14.470;2023-06-19T05:21:30;96832.48;;;22.55;37.01
47082;BME280;33066;49.296;14.470;2023-06-19T05:23:55;96831.49;;;22.34;37.11
47082;BME280;33066;49.296;14.470;2023-06-19T05:26:20;96835.90;;;22.61;37.24
47082;BME280;33066;49.296;14.470;2023-06-19T05:28:46;96840.32;;;22.37;37.19
47082;BME280;33066;49.296;14.470;2023-06-19T05:31:11;96843.21;;;22.36;37.26
47082;BME280;33066;49.296;14.470;2023-06-19T05:33:37;96845.24;;;22.38;37.41
47082;BME280;33066;49.296;14.470;2023-06-19T05:36:03;96847.70;;;22.43;37.51
47082;BME280;33066;49.296;14.470;2023-06-19T05:38:28;96850.81;;;22.45;37.49
47082;BME280;33066;49.296;14.470;2023-06-19T05:40:54;96850.99;;;22.49;37.45
47082;BME280;33066;49.296;14.470;2023-06-19T05:43:19;96855.25;;;22.81;37.39
47082;BME280;33066;49.296;14.470;2023-06-19T05:45:45;96862.12;;;22.63;37.11
47082;BME280;33066;49.296;14.470;2023-06-19T05:48:10;96864.51;;;22.69;36.82
47082;BME280;33066;49.296;14.470;2023-06-19T05:50:36;96866.82;;;22.78;36.63
47082;BME280;33066;49.296;14.470;2023-06-19T05:53:01;96869.50;;;22.68;36.50
47082;BME280;33066;49.296;14.470;2023-06-19T05:55:27;96870.80;;;22.91;36.62
47082;BME280;33066;49.296;14.470;2023-06-19T05:57:52;96870.11;;;22.95;36.71
47082;BME280;33066;49.296;14.470;2023-06-19T06:00:18;96874.82;;;23.00;36.73
47082;BME280;33066;49.296;14.470;2023-06-19T06:02:43;96873.58;;;23.10;36.89
47082;BME280;33066;49.296;14.470;2023-06-19T06:05:09;96874.10;;;23.19;36.81
47082;BME280;33066;49.296;14.470;2023-06-19T06:07:33;96874.24;;;23.26;36.70
47082;BME280;33066;49.296;14.470;2023-06-19T06:09:59;96871.96;;;23.35;36.86
47082;BME280;33066;49.296;14.470;2023-06-19T06:12:24;96873.57;;;23.14;36.80
47082;BME280;33066;49.296;14.470;2023-06-19T06:14:49;96877.67;;;22.97;36.87
47082;BME280;33066;49.296;14.470;2023-06-19T06:17:15;96879.87;;;23.04;37.04
47082;BME280;33066;49.296;14.470;2023-06-19T06:19:40;96883.01;;;23.60;37.34
47082;BME280;33066;49.296;14.470;2023-06-19T06:22:06;96883.32;;;23.43;37.33
47082;BME280;33066;49.296;14.470;2023-06-19T06:24:31;96884.90;;;23.49;37.29
47082;BME280;33066;49.296;14.470;2023-06-19T06:26:57;96886.71;;;23.58;37.03
47082;BME280;33066;49.296;14.470;2023-06-19T06:29:23;96888.26;;;23.36;37.16
47082;BME280;33066;49.296;14.470;2023-06-19T06:31:47;96891.86;;;23.41;37.65
47082;BME280;33066;49.296;14.470;2023-06-19T06:34:13;96893.65;;;23.43;37.54
47082;BME280;33066;49.296;14.470;2023-06-19T06:36:38;96893.07;;;23.66;37.69
47082;BME280;33066;49.296;14.470;2023-06-19T06:39:03;96897.90;;;23.63;37.95
47082;BME280;33066;49.296;14.470;2023-06-19T06:41:28;96901.53;;;23.60;38.01
47082;BME280;33066;49.296;14.470;2023-06-19T06:43:53;96906.12;;;23.62;37.88
47082;BME280;33066;49.296;14.470;2023-06-19T06:46:19;96905.43;;;23.67;37.70
47082;BME280;33066;49.296;14.470;2023-06-19T06:48:44;96908.53;;;23.48;37.79
47082;BME280;33066;49.296;14.470;2023-06-19T06:51:09;96908.86;;;23.53;37.66
47082;BME280;33066;49.296;14.470;2023-06-19T06:53:35;96909.12;;;23.79;37.81
47082;BME280;33066;49.296;14.470;2023-06-19T06:56:00;96911.33;;;23.83;37.67
47082;BME280;33066;49.296;14.470;2023-06-19T06:58:26;96912.12;;;23.59;37.63
47082;BME280;33066;49.296;14.470;2023-06-19T07:00:52;96914.60;;;23.87;37.86
47082;BME280;33066;49.296;14.470;2023-06-19T07:03:17;96914.72;;;23.67;37.82
47082;BME280;33066;49.296;14.470;2023-06-19T07:05:43;96912.46;;;23.98;37.85
47082;BME280;33066;49.296;14.470;2023-06-19T07:08:08;96913.61;;;23.81;37.84
47082;BME280;33066;49.296;14.470;2023-06-19T07:10:33;96909.28;;;23.88;38.00
47082;BME280;33066;49.296;14.470;2023-06-19T07:12:58;96907.35;;;23.92;37.93
47082;BME280;33066;49.296;14.470;2023-06-19T07:15:24;96908.12;;;24.24;38.04
47082;BME280;33066;49.296;14.470;2023-06-19T07:17:50;96911.03;;;24.08;38.04
47082;BME280;33066;49.296;14.470;2023-06-19T07:20:15;96909.93;;;24.15;38.04
47082;BME280;33066;49.296;14.470;2023-06-19T07:22:40;96908.45;;;24.23;37.93
47082;BME280;33066;49.296;14.470;2023-06-19T07:25:06;96909.73;;;24.34;38.01
47082;BME280;33066;49.296;14.470;2023-06-19T07:27:31;96910.74;;;24.45;38.03
47082;BME280;33066;49.296;14.470;2023-06-19T07:29:56;96915.31;;;24.53;38.06
47082;BME280;33066;49.296;14.470;2023-06-19T07:32:21;96914.62;;;24.65;37.94
47082;BME280;33066;49.296;14.470;2023-06-19T07:34:47;96916.77;;;24.59;37.73
47082;BME280;33066;49.296;14.470;2023-06-19T07:37:12;96916.73;;;24.52;37.79
47082;BME280;33066;49.296;14.470;2023-06-19T07:39:38;96915.31;;;24.87;37.50
47082;BME280;33066;49.296;14.470;2023-06-19T07:42:04;96919.19;;;24.81;37.54
47082;BME280;33066;49.296;14.470;2023-06-19T07:44:28;96917.79;;;24.97;37.10
47082;BME280;33066;49.296;14.470;2023-06-19T07:46:54;96918.21;;;25.14;36.93
47082;BME280;33066;49.296;14.470;2023-06-19T07:49:19;96917.68;;;25.29;36.62
47082;BME280;33066;49.296;14.470;2023-06-19T07:51:44;96916.23;;;25.47;36.77
47082;BME280;33066;49.296;14.470;2023-06-19T07:54:10;96912.22;;;25.63;36.84
47082;BME280;33066;49.296;14.470;2023-06-19T07:56:36;96912.56;;;25.73;36.73
47082;BME280;33066;49.296;14.470;2023-06-19T07:59:01;96913.71;;;25.83;36.62
47082;BME280;33066;49.296;14.470;2023-06-19T08:01:27;96911.73;;;25.91;36.57
47082;BME280;33066;49.296;14.470;2023-06-19T08:03:52;96912.26;;;25.86;36.45
47082;BME280;33066;49.296;14.470;2023-06-19T08:06:18;96915.16;;;25.88;36.34
47082;BME280;33066;49.296;14.470;2023-06-19T08:08:43;96918.36;;;25.96;36.40
47082;BME280;33066;49.296;14.470;2023-06-19T08:11:09;96920.96;;;25.80;36.47
47082;BME280;33066;49.296;14.470;2023-06-19T08:13:35;96922.11;;;26.06;36.67
47082;BME280;33066;49.296;14.470;2023-06-19T08:16:00;96921.84;;;25.85;36.72
47082;BME280;33066;49.296;14.470;2023-06-19T08:18:25;96919.68;;;25.69;36.55
47082;BME280;33066;49.296;14.470;2023-06-19T08:20:51;96917.58;;;26.09;36.56
47082;BME280;33066;49.296;14.470;2023-06-19T08:23:16;96914.22;;;26.07;36.37
47082;BME280;33066;49.296;14.470;2023-06-19T08:25:41;96915.33;;;26.35;36.55
47082;BME280;33066;49.296;14.470;2023-06-19T08:28:07;96914.90;;;26.47;36.78
47082;BME280;33066;49.296;14.470;2023-06-19T08:30:32;96915.87;;;26.88;36.19
47082;BME280;33066;49.296;14.470;2023-06-19T08:32:58;96915.30;;;26.82;36.07
47082;BME280;33066;49.296;14.470;2023-06-19T08:35:24;96914.67;;;26.44;35.39
47082;BME280;33066;49.296;14.470;2023-06-19T08:37:50;96913.67;;;26.74;35.48
47082;BME280;33066;49.296;14.470;2023-06-19T08:40:15;96909.58;;;27.04;35.61
47082;BME280;33066;49.296;14.470;2023-06-19T08:42:40;96911.78;;;26.90;35.27
47082;BME280;33066;49.296;14.470;2023-06-19T08:45:07;96910.96;;;27.22;35.79
47082;BME280;33066;49.296;14.470;2023-06-19T08:47:32;96912.24;;;27.26;35.90
47082;BME280;33066;49.296;14.470;2023-06-19T08:49:58;96909.79;;;26.87;35.73
47082;BME280;33066;49.296;14.470;2023-06-19T08:52:22;96906.82;;;27.46;35.61
47082;BME280;33066;49.296;14.470;2023-06-19T08:54:48;96903.08;;;27.10;34.46
47082;BME280;33066;49.296;14.470;2023-06-19T08:57:13;96902.71;;;27.32;33.54
47082;BME280;33066;49.296;14.470;2023-06-19T08:59:40;96907.03;;;27.26;33.60
47082;BME280;33066;49.296;14.470;2023-06-19T09:02:05;96914.47;;;27.19;33.50
47082;BME280;33066;49.296;14.470;2023-06-19T09:04:30;96918.60;;;27.43;33.21
47082;BME280;33066;49.296;14.470;2023-06-19T09:06:57;96926.63;;;27.04;33.23
47082;BME280;33066;49.296;14.470;2023-06-19T09:09:22;96922.09;;;27.41;32.57
47082;BME280;33066;49.296;14.470;2023-06-19T09:11:56;96918.06;;;27.35;32.36
47082;BME280;33066;49.296;14.470;2023-06-19T09:14:11;96913.24;;;27.58;32.43
47082;BME280;33066;49.296;14.470;2023-06-19T09:16:39;96913.42;;;28.20;32.40
47082;BME280;33066;49.296;14.470;2023-06-19T09:19:02;96906.65;;;27.88;29.98
47082;BME280;33066;49.296;14.470;2023-06-19T09:21:28;96901.75;;;28.35;29.22
47082;BME280;33066;49.296;14.470;2023-06-19T09:23:54;96897.83;;;28.38;30.03
47082;BME280;33066;49.296;14.470;2023-06-19T09:26:20;96896.28;;;28.06;31.04
47082;BME280;33066;49.296;14.470;2023-06-19T09:28:45;96895.20;;;28.01;31.25
47082;BME280;33066;49.296;14.470;2023-06-19T09:31:11;96895.01;;;28.04;30.73
47082;BME280;33066;49.296;14.470;2023-06-19T09:33:37;96893.28;;;28.33;30.94
47082;BME280;33066;49.296;14.470;2023-06-19T09:36:03;96893.74;;;28.04;30.34
47082;BME280;33066;49.296;14.470;2023-06-19T09:38:28;96893.63;;;28.21;30.69
47082;BME280;33066;49.296;14.470;2023-06-19T09:40:52;96888.42;;;28.22;30.40
47082;BME280;33066;49.296;14.470;2023-06-19T09:43:25;96884.95;;;28.27;30.02
47082;BME280;33066;49.296;14.470;2023-06-19T09:45:43;96877.80;;;28.37;29.34
47082;BME280;33066;49.296;14.470;2023-06-19T09:48:12;96874.91;;;28.10;29.11
47082;BME280;33066;49.296;14.470;2023-06-19T09:50:35;96877.06;;;28.52;29.46
47082;BME280;33066;49.296;14.470;2023-06-19T09:53:00;96881.30;;;28.61;28.71
47082;BME280;33066;49.296;14.470;2023-06-19T09:55:26;96877.41;;;28.73;28.44
47082;BME280;33066;49.296;14.470;2023-06-19T09:57:51;96878.70;;;28.70;28.55
47082;BME280;33066;49.296;14.470;2023-06-19T10:00:16;96877.38;;;28.56;28.46
47082;BME280;33066;49.296;14.470;2023-06-19T10:02:42;96876.72;;;28.81;28.52
47082;BME280;33066;49.296;14.470;2023-06-19T10:05:07;96873.04;;;29.03;27.88
47082;BME280;33066;49.296;14.470;2023-06-19T10:07:34;96868.01;;;29.28;28.04
47082;BME280;33066;49.296;14.470;2023-06-19T10:10:00;96868.50;;;29.44;28.19
47082;BME280;33066;49.296;14.470;2023-06-19T10:12:35;96868.06;;;29.52;27.81
47082;BME280;33066;49.296;14.470;2023-06-19T10:14:49;96865.85;;;29.75;27.06
47082;BME280;33066;49.296;14.470;2023-06-19T10:17:16;96860.23;;;29.73;27.69
47082;BME280;33066;49.296;14.470;2023-06-19T10:19:49;96857.65;;;29.94;26.96
47082;BME280;33066;49.296;14.470;2023-06-19T10:22:05;96855.54;;;30.34;26.25
47082;BME280;33066;49.296;14.470;2023-06-19T10:24:30;96852.11;;;30.86;26.90
47082;BME280;33066;49.296;14.470;2023-06-19T10:26:56;96855.17;;;31.15;25.87
47082;BME280;33066;49.296;14.470;2023-06-19T10:29:21;96851.29;;;31.37;24.71
47082;BME280;33066;49.296;14.470;2023-06-19T10:31:46;96845.45;;;31.70;24.65
47082;BME280;33066;49.296;14.470;2023-06-19T10:34:12;96844.60;;;32.29;25.98
47082;BME280;33066;49.296;14.470;2023-06-19T10:36:37;96843.78;;;32.30;26.19
47082;BME280;33066;49.296;14.470;2023-06-19T10:39:03;96843.09;;;32.46;25.51
47082;BME280;33066;49.296;14.470;2023-06-19T10:41:28;96847.51;;;32.65;26.00
47082;BME280;33066;49.296;14.470;2023-06-19T10:43:58;96841.12;;;32.79;23.48
47082;BME280;33066;49.296;14.470;2023-06-19T10:46:20;96839.65;;;32.74;23.32
47082;BME280;33066;49.296;14.470;2023-06-19T10:48:45;96835.84;;;33.05;24.50
47082;BME280;33066;49.296;14.470;2023-06-19T10:51:10;96833.17;;;33.33;24.59
47082;BME280;33066;49.296;14.470;2023-06-19T10:53:36;96834.06;;;33.35;23.95
47082;BME280;33066;49.296;14.470;2023-06-19T10:56:02;96831.89;;;33.55;23.22
47082;BME280;33066;49.296;14.470;2023-06-19T10:58:26;96832.67;;;33.69;21.97
47082;BME280;33066;49.296;14.470;2023-06-19T11:00:52;96832.43;;;33.79;22.10
47082;BME280;33066;49.296;14.470;2023-06-19T11:03:18;96832.24;;;34.00;22.69
47082;BME280;33066;49.296;14.470;2023-06-19T11:05:44;96836.27;;;34.06;20.86
47082;BME280;33066;49.296;14.470;2023-06-19T11:08:09;96833.92;;;34.11;21.13
47082;BME280;33066;49.296;14.470;2023-06-19T11:10:34;96837.08;;;34.00;20.74
47082;BME280;33066;49.296;14.470;2023-06-19T11:13:00;96836.89;;;34.37;20.52
47082;BME280;33066;49.296;14.470;2023-06-19T11:15:29;96837.05;;;34.25;20.42
47082;BME280;33066;49.296;14.470;2023-06-19T11:17:50;96831.02;;;34.22;20.80
47082;BME280;33066;49.296;14.470;2023-06-19T11:20:15;96830.61;;;34.80;20.65
47082;BME280;33066;49.296;14.470;2023-06-19T11:22:41;96829.72;;;34.92;21.42
47082;BME280;33066;49.296;14.470;2023-06-19T11:25:07;96827.33;;;35.16;20.03
47082;BME280;33066;49.296;14.470;2023-06-19T11:27:31;96824.96;;;35.43;18.90
47082;BME280;33066;49.296;14.470;2023-06-19T11:29:58;96825.49;;;35.39;19.38
47082;BME280;33066;49.296;14.470;2023-06-19T11:32:22;96829.65;;;35.64;18.71
47082;BME280;33066;49.296;14.470;2023-06-19T11:34:48;96825.45;;;35.12;18.76
47082;BME280;33066;49.296;14.470;2023-06-19T11:37:14;96821.82;;;34.76;18.70
47082;BME280;33066;49.296;14.470;2023-06-19T11:39:39;96823.04;;;34.60;19.21
47082;BME280;33066;49.296;14.470;2023-06-19T11:42:05;96821.02;;;34.58;18.24
47082;BME280;33066;49.296;14.470;2023-06-19T11:44:30;96823.86;;;34.05;18.36
47082;BME280;33066;49.296;14.470;2023-06-19T11:46:57;96821.93;;;34.49;18.64
47082;BME280;33066;49.296;14.470;2023-06-19T11:49:21;96820.75;;;34.32;18.31
47082;BME280;33066;49.296;14.470;2023-06-19T11:51:46;96819.62;;;34.19;18.78
47082;BME280;33066;49.296;14.470;2023-06-19T11:54:13;96823.11;;;33.84;19.31
47082;BME280;33066;49.296;14.470;2023-06-19T11:56:37;96819.79;;;33.96;19.14
47082;BME280;33066;49.296;14.470;2023-06-19T11:59:03;96819.38;;;34.03;19.03
47082;BME280;33066;49.296;14.470;2023-06-19T12:01:28;96820.29;;;34.08;19.86
47082;BME280;33066;49.296;14.470;2023-06-19T12:03:53;96822.12;;;33.42;20.05
47082;BME280;33066;49.296;14.470;2023-06-19T12:06:19;96822.13;;;33.48;19.24
47082;BME280;33066;49.296;14.470;2023-06-19T12:08:44;96822.72;;;33.60;19.45
47082;BME280;33066;49.296;14.470;2023-06-19T12:11:09;96818.58;;;34.80;19.69
47082;BME280;33066;49.296;14.470;2023-06-19T12:13:35;96817.50;;;35.33;20.21
47082;BME280;33066;49.296;14.470;2023-06-19T12:16:00;96818.04;;;34.54;19.82
47082;BME280;33066;49.296;14.470;2023-06-19T12:18:25;96817.10;;;34.63;18.55
47082;BME280;33066;49.296;14.470;2023-06-19T12:20:51;96820.04;;;34.83;19.45
47082;BME280;33066;49.296;14.470;2023-06-19T12:23:16;96819.07;;;35.32;18.22
47082;BME280;33066;49.296;14.470;2023-06-19T12:25:42;96817.19;;;35.33;19.05
47082;BME280;33066;49.296;14.470;2023-06-19T12:28:07;96812.78;;;35.30;19.29
47082;BME280;33066;49.296;14.470;2023-06-19T12:30:33;96813.30;;;35.44;19.15
47082;BME280;33066;49.296;14.470;2023-06-19T12:32:58;96813.84;;;35.91;18.88
47082;BME280;33066;49.296;14.470;2023-06-19T12:35:24;96811.49;;;36.15;18.70
47082;BME280;33066;49.296;14.470;2023-06-19T12:37:49;96811.61;;;36.15;19.54
47082;BME280;33066;49.296;14.470;2023-06-19T12:40:15;96814.27;;;35.68;19.02
47082;BME280;33066;49.296;14.470;2023-06-19T12:42:41;96810.49;;;35.72;19.48